KAL841 RKSI-ZSQD
Flight info
| Callsign | KAL841 |
|---|---|
| Flight time | 1h 9m |
| Altitude | 30000 |
| Route | NOPIK Y697 AGAVO/K0832S0915 W209 LATUX LAT81A |
| Aircraft | B738/M-SDE2E3FGHIRWXY/LB1 |
Departure
| Time | 2026-05-05 09:07 |
|---|---|
| Airport | Incheon International Airport (RKSI) |
Arrival
| Time | 2026-05-05 10:16 |
|---|---|
| Airport | Qingdao Jiaodong International Airport (ZSQD) |
| Time | Latitude | Longitude | Altitude | Speed | Heading |
|---|---|---|---|---|---|
| 2026-05-05 09:01 | 37.46194 | 126.43275 | 32 ft | 0 kts | 54° |
| 2026-05-05 09:01 | 37.46188 | 126.43263 | 31 ft | 4 kts | 54° |
| 2026-05-05 09:01 | 37.46172 | 126.43236 | 32 ft | 4 kts | 54° |
| 2026-05-05 09:02 | 37.46158 | 126.43211 | 32 ft | 3 kts | 54° |
| 2026-05-05 09:02 | 37.46141 | 126.43191 | 32 ft | 4 kts | 4° |
| 2026-05-05 09:02 | 37.46118 | 126.43200 | 30 ft | 3 kts | 325° |
| 2026-05-05 09:02 | 37.46111 | 126.43206 | 32 ft | 0 kts | 324° |
| 2026-05-05 09:04 | 37.46141 | 126.43180 | 31 ft | 9 kts | 325° |
| 2026-05-05 09:05 | 37.46214 | 126.43128 | 31 ft | 15 kts | 335° |
| 2026-05-05 09:05 | 37.46321 | 126.43066 | 32 ft | 17 kts | 332° |
| 2026-05-05 09:05 | 37.46348 | 126.42984 | 32 ft | 17 kts | 251° |
| 2026-05-05 09:05 | 37.46263 | 126.42826 | 32 ft | 16 kts | 235° |
| 2026-05-05 09:06 | 37.46244 | 126.42740 | 32 ft | 15 kts | 270° |
| 2026-05-05 09:06 | 37.46201 | 126.42622 | 30 ft | 15 kts | 235° |
| 2026-05-05 09:06 | 37.46115 | 126.42597 | 30 ft | 14 kts | 148° |
| 2026-05-05 09:06 | 37.46096 | 126.42613 | 32 ft | 0 kts | 145° |
| 2026-05-05 09:07 | 37.45864 | 126.42814 | 31 ft | 85 kts | 144° |
| 2026-05-05 09:07 | 37.45173 | 126.43453 | 52 ft | 158 kts | 148° |
| 2026-05-05 09:07 | 37.44219 | 126.44277 | 759 ft | 174 kts | 154° |
| 2026-05-05 09:08 | 37.43153 | 126.45057 | 1756 ft | 183 kts | 155° |
| 2026-05-05 09:08 | 37.41962 | 126.45920 | 2203 ft | 213 kts | 155° |
| 2026-05-05 09:08 | 37.40617 | 126.46905 | 2614 ft | 238 kts | 154° |
| 2026-05-05 09:08 | 37.39139 | 126.47996 | 3219 ft | 254 kts | 153° |
| 2026-05-05 09:09 | 37.37509 | 126.48916 | 4151 ft | 258 kts | 168° |
| 2026-05-05 09:09 | 37.35756 | 126.49448 | 5197 ft | 263 kts | 169° |
| 2026-05-05 09:09 | 37.33959 | 126.50020 | 6164 ft | 269 kts | 168° |
| 2026-05-05 09:09 | 37.32125 | 126.50627 | 7147 ft | 273 kts | 168° |
| 2026-05-05 09:10 | 37.30279 | 126.51245 | 8130 ft | 276 kts | 168° |
| 2026-05-05 09:10 | 37.28369 | 126.51402 | 9062 ft | 277 kts | 194° |
| 2026-05-05 09:10 | 37.26639 | 126.50459 | 10024 ft | 276 kts | 217° |
| 2026-05-05 09:10 | 37.25148 | 126.48865 | 10659 ft | 292 kts | 223° |
| 2026-05-05 09:11 | 37.23595 | 126.47017 | 10872 ft | 321 kts | 224° |
| 2026-05-05 09:11 | 37.21922 | 126.44996 | 11195 ft | 343 kts | 224° |
| 2026-05-05 09:11 | 37.20169 | 126.42893 | 11883 ft | 352 kts | 224° |
| 2026-05-05 09:11 | 37.18379 | 126.40767 | 12752 ft | 355 kts | 223° |
| 2026-05-05 09:12 | 37.16560 | 126.38624 | 13540 ft | 362 kts | 223° |
| 2026-05-05 09:12 | 37.14724 | 126.36471 | 14163 ft | 371 kts | 223° |
| 2026-05-05 09:12 | 37.12822 | 126.34245 | 14876 ft | 376 kts | 223° |
| 2026-05-05 09:12 | 37.11188 | 126.31680 | 15614 ft | 381 kts | 243° |
| 2026-05-05 09:13 | 37.10384 | 126.28524 | 16390 ft | 384 kts | 263° |
| 2026-05-05 09:13 | 37.10284 | 126.25175 | 17154 ft | 387 kts | 270° |
| 2026-05-05 09:13 | 37.10304 | 126.21779 | 17860 ft | 392 kts | 271° |
| 2026-05-05 09:13 | 37.10317 | 126.18346 | 18534 ft | 396 kts | 270° |
| 2026-05-05 09:14 | 37.10302 | 126.14881 | 19161 ft | 400 kts | 270° |
| 2026-05-05 09:14 | 37.10281 | 126.11375 | 19793 ft | 403 kts | 271° |
| 2026-05-05 09:14 | 37.10772 | 126.07918 | 20373 ft | 407 kts | 291° |
| 2026-05-05 09:14 | 37.11924 | 126.04680 | 21041 ft | 409 kts | 295° |
| 2026-05-05 09:15 | 37.13098 | 126.01416 | 21625 ft | 413 kts | 294° |
| 2026-05-05 09:15 | 37.14270 | 125.98097 | 22156 ft | 418 kts | 294° |
| 2026-05-05 09:15 | 37.15438 | 125.94737 | 22722 ft | 422 kts | 294° |
| 2026-05-05 09:15 | 37.16603 | 125.91355 | 23294 ft | 425 kts | 293° |
| 2026-05-05 09:16 | 37.17773 | 125.87942 | 23828 ft | 428 kts | 293° |
| 2026-05-05 09:16 | 37.18953 | 125.84496 | 24295 ft | 431 kts | 293° |
| 2026-05-05 09:16 | 37.20140 | 125.81031 | 24793 ft | 433 kts | 293° |
| 2026-05-05 09:16 | 37.21330 | 125.77551 | 25293 ft | 434 kts | 293° |
| 2026-05-05 09:17 | 37.22521 | 125.74064 | 25769 ft | 436 kts | 293° |
| 2026-05-05 09:17 | 37.23706 | 125.70592 | 26225 ft | 438 kts | 293° |
| 2026-05-05 09:17 | 37.24906 | 125.67070 | 26680 ft | 440 kts | 293° |
| 2026-05-05 09:17 | 37.26115 | 125.63518 | 27110 ft | 443 kts | 293° |
| 2026-05-05 09:18 | 37.27328 | 125.59950 | 27500 ft | 446 kts | 293° |
| 2026-05-05 09:18 | 37.28547 | 125.56360 | 27931 ft | 447 kts | 293° |
| 2026-05-05 09:18 | 37.29767 | 125.52761 | 28387 ft | 448 kts | 293° |
| 2026-05-05 09:18 | 37.30989 | 125.49154 | 28836 ft | 449 kts | 293° |
| 2026-05-05 09:19 | 37.32194 | 125.45591 | 29359 ft | 448 kts | 294° |
| 2026-05-05 09:19 | 37.33403 | 125.42010 | 30006 ft | 444 kts | 294° |
| 2026-05-05 09:19 | 37.34613 | 125.38426 | 30017 ft | 446 kts | 294° |
| 2026-05-05 09:20 | 37.37025 | 125.31268 | 30030 ft | 444 kts | 294° |
| 2026-05-05 09:20 | 37.39364 | 125.24086 | 30022 ft | 444 kts | 288° |
| 2026-05-05 09:20 | 37.39783 | 125.20234 | 30050 ft | 447 kts | 271° |
| 2026-05-05 09:21 | 37.39706 | 125.16320 | 30035 ft | 448 kts | 269° |
| 2026-05-05 09:21 | 37.39485 | 125.08522 | 30031 ft | 449 kts | 270° |
| 2026-05-05 09:22 | 37.39313 | 125.00661 | 30026 ft | 449 kts | 270° |
| 2026-05-05 09:22 | 37.39171 | 124.92792 | 30021 ft | 449 kts | 271° |
| 2026-05-05 09:23 | 37.39026 | 124.84934 | 30022 ft | 449 kts | 270° |
| 2026-05-05 09:23 | 37.38871 | 124.77116 | 30020 ft | 449 kts | 270° |
| 2026-05-05 09:24 | 37.38707 | 124.69254 | 30005 ft | 449 kts | 270° |
| 2026-05-05 09:24 | 37.38539 | 124.61388 | 30009 ft | 450 kts | 270° |
| 2026-05-05 09:25 | 37.38367 | 124.53513 | 30008 ft | 450 kts | 270° |
| 2026-05-05 09:25 | 37.38105 | 124.45677 | 29989 ft | 452 kts | 264° |
| 2026-05-05 09:26 | 37.36259 | 124.38081 | 30004 ft | 459 kts | 245° |
| 2026-05-05 09:26 | 37.32887 | 124.31238 | 29991 ft | 461 kts | 238° |
| 2026-05-05 09:27 | 37.29396 | 124.24532 | 29990 ft | 461 kts | 239° |
| 2026-05-05 09:27 | 37.25943 | 124.17738 | 29984 ft | 461 kts | 240° |
| 2026-05-05 09:28 | 37.22492 | 124.10950 | 29991 ft | 462 kts | 239° |
| 2026-05-05 09:28 | 37.18935 | 124.04226 | 29989 ft | 462 kts | 238° |
| 2026-05-05 09:29 | 37.14652 | 123.98207 | 29983 ft | 466 kts | 220° |
| 2026-05-05 09:29 | 37.09336 | 123.93638 | 29980 ft | 468 kts | 215° |
| 2026-05-05 09:30 | 37.03876 | 123.89161 | 29987 ft | 469 kts | 215° |
| 2026-05-05 09:30 | 36.98436 | 123.84638 | 29982 ft | 470 kts | 216° |
| 2026-05-05 09:31 | 36.93010 | 123.80086 | 29989 ft | 469 kts | 215° |
| 2026-05-05 09:31 | 36.87588 | 123.75545 | 29977 ft | 468 kts | 216° |
| 2026-05-05 09:32 | 36.82224 | 123.71057 | 29982 ft | 466 kts | 215° |
| 2026-05-05 09:32 | 36.76827 | 123.66556 | 29970 ft | 466 kts | 216° |
| 2026-05-05 09:33 | 36.71427 | 123.62053 | 29988 ft | 467 kts | 216° |
| 2026-05-05 09:33 | 36.66019 | 123.57545 | 29987 ft | 468 kts | 216° |
| 2026-05-05 09:34 | 36.60624 | 123.53000 | 29987 ft | 468 kts | 216° |
| 2026-05-05 09:34 | 36.55232 | 123.48453 | 29994 ft | 468 kts | 216° |
| 2026-05-05 09:35 | 36.49874 | 123.43954 | 29976 ft | 467 kts | 216° |
| 2026-05-05 09:35 | 36.42146 | 123.36693 | 29978 ft | 461 kts | 231° |
| 2026-05-05 09:36 | 36.38712 | 123.30091 | 29978 ft | 453 kts | 249° |
| 2026-05-05 09:36 | 36.36273 | 123.22898 | 29972 ft | 451 kts | 250° |
| 2026-05-05 09:37 | 36.33855 | 123.15731 | 29968 ft | 448 kts | 249° |
| 2026-05-05 09:37 | 36.31425 | 123.08655 | 29975 ft | 448 kts | 249° |
| 2026-05-05 09:38 | 36.28956 | 123.01540 | 29978 ft | 449 kts | 249° |
| 2026-05-05 09:38 | 36.26472 | 122.94418 | 29978 ft | 451 kts | 249° |
| 2026-05-05 09:39 | 36.23974 | 122.87271 | 29963 ft | 453 kts | 249° |
| 2026-05-05 09:39 | 36.21468 | 122.80118 | 29972 ft | 456 kts | 249° |
| 2026-05-05 09:40 | 36.18925 | 122.72875 | 29973 ft | 459 kts | 249° |
| 2026-05-05 09:40 | 36.16368 | 122.65607 | 29965 ft | 461 kts | 249° |
| 2026-05-05 09:41 | 36.13796 | 122.58318 | 29953 ft | 463 kts | 249° |
| 2026-05-05 09:41 | 36.11226 | 122.51050 | 29958 ft | 463 kts | 249° |
| 2026-05-05 09:42 | 36.08643 | 122.43761 | 29953 ft | 462 kts | 249° |
| 2026-05-05 09:42 | 36.06061 | 122.36494 | 29953 ft | 461 kts | 249° |
| 2026-05-05 09:43 | 36.03479 | 122.29246 | 29945 ft | 460 kts | 250° |
| 2026-05-05 09:43 | 36.00899 | 122.22016 | 29955 ft | 460 kts | 249° |
| 2026-05-05 09:44 | 35.98333 | 122.14841 | 29944 ft | 459 kts | 249° |
| 2026-05-05 09:44 | 35.95746 | 122.07626 | 29945 ft | 459 kts | 249° |
| 2026-05-05 09:45 | 35.93158 | 122.00426 | 29942 ft | 459 kts | 250° |
| 2026-05-05 09:45 | 35.90556 | 121.93199 | 29949 ft | 460 kts | 250° |
| 2026-05-05 09:46 | 35.87950 | 121.85981 | 29941 ft | 461 kts | 249° |
| 2026-05-05 09:46 | 35.85350 | 121.78798 | 29923 ft | 462 kts | 250° |
| 2026-05-05 09:47 | 35.82729 | 121.71571 | 29936 ft | 462 kts | 250° |
| 2026-05-05 09:47 | 35.80094 | 121.64325 | 29937 ft | 462 kts | 250° |
| 2026-05-05 09:48 | 35.77458 | 121.57089 | 29933 ft | 463 kts | 250° |
| 2026-05-05 09:48 | 35.74830 | 121.49893 | 29921 ft | 463 kts | 250° |
| 2026-05-05 09:49 | 35.72183 | 121.42661 | 29927 ft | 462 kts | 250° |
| 2026-05-05 09:49 | 35.69536 | 121.35444 | 29929 ft | 462 kts | 250° |
| 2026-05-05 09:50 | 35.66882 | 121.28244 | 29923 ft | 462 kts | 250° |
| 2026-05-05 09:50 | 35.64232 | 121.21082 | 29911 ft | 462 kts | 250° |
| 2026-05-05 09:51 | 35.61570 | 121.13898 | 29922 ft | 462 kts | 250° |
| 2026-05-05 09:51 | 35.58895 | 121.06690 | 29915 ft | 462 kts | 249° |
| 2026-05-05 09:52 | 35.56222 | 120.99506 | 29915 ft | 462 kts | 249° |
| 2026-05-05 09:52 | 35.53545 | 120.92325 | 29908 ft | 462 kts | 249° |
| 2026-05-05 09:53 | 35.50877 | 120.85182 | 29917 ft | 462 kts | 249° |
| 2026-05-05 09:53 | 35.48279 | 120.77961 | 29901 ft | 459 kts | 257° |
| 2026-05-05 09:54 | 35.47862 | 120.75447 | 29916 ft | 451 kts | 268° |
| 2026-05-05 09:54 | 35.47506 | 120.70327 | 29906 ft | 451 kts | 269° |
| 2026-05-05 09:54 | 35.47196 | 120.66490 | 29558 ft | 455 kts | 268° |
| 2026-05-05 09:54 | 35.46971 | 120.63933 | 29018 ft | 455 kts | 269° |
| 2026-05-05 09:55 | 35.47140 | 120.60149 | 28429 ft | 437 kts | 288° |
| 2026-05-05 09:55 | 35.48222 | 120.56763 | 27834 ft | 423 kts | 303° |
| 2026-05-05 09:55 | 35.49970 | 120.53893 | 27088 ft | 416 kts | 316° |
| 2026-05-05 09:55 | 35.52137 | 120.51591 | 26436 ft | 410 kts | 328° |
| 2026-05-05 09:56 | 35.54651 | 120.49997 | 25826 ft | 404 kts | 338° |
| 2026-05-05 09:56 | 35.57251 | 120.48723 | 25239 ft | 400 kts | 340° |
| 2026-05-05 09:56 | 35.59846 | 120.47509 | 24646 ft | 397 kts | 340° |
| 2026-05-05 09:56 | 35.62434 | 120.46302 | 24048 ft | 396 kts | 340° |
| 2026-05-05 09:57 | 35.64959 | 120.45109 | 23472 ft | 394 kts | 339° |
| 2026-05-05 09:57 | 35.67516 | 120.43886 | 22803 ft | 391 kts | 339° |
| 2026-05-05 09:57 | 35.70043 | 120.42665 | 22193 ft | 388 kts | 339° |
| 2026-05-05 09:57 | 35.72541 | 120.41450 | 21601 ft | 385 kts | 339° |
| 2026-05-05 09:58 | 35.75031 | 120.40235 | 21038 ft | 382 kts | 339° |
| 2026-05-05 09:58 | 35.77495 | 120.39030 | 20463 ft | 380 kts | 339° |
| 2026-05-05 09:58 | 35.79936 | 120.37836 | 19984 ft | 376 kts | 339° |
| 2026-05-05 09:58 | 35.82331 | 120.36664 | 19468 ft | 373 kts | 339° |
| 2026-05-05 09:59 | 35.84739 | 120.35484 | 18940 ft | 371 kts | 339° |
| 2026-05-05 09:59 | 35.87134 | 120.34311 | 18388 ft | 370 kts | 339° |
| 2026-05-05 09:59 | 35.89527 | 120.33137 | 17775 ft | 370 kts | 338° |
| 2026-05-05 09:59 | 35.91923 | 120.31962 | 17189 ft | 368 kts | 338° |
| 2026-05-05 10:00 | 35.94300 | 120.30795 | 16629 ft | 366 kts | 338° |
| 2026-05-05 10:00 | 35.96661 | 120.29636 | 16078 ft | 364 kts | 338° |
| 2026-05-05 10:00 | 35.99092 | 120.28775 | 15404 ft | 366 kts | 351° |
| 2026-05-05 10:00 | 36.01638 | 120.28447 | 14661 ft | 370 kts | 355° |
| 2026-05-05 10:01 | 36.04216 | 120.28205 | 14038 ft | 370 kts | 355° |
| 2026-05-05 10:01 | 36.06749 | 120.27970 | 13421 ft | 369 kts | 355° |
| 2026-05-05 10:01 | 36.09308 | 120.27715 | 12828 ft | 366 kts | 354° |
| 2026-05-05 10:01 | 36.11840 | 120.27442 | 12273 ft | 363 kts | 354° |
| 2026-05-05 10:02 | 36.14339 | 120.27159 | 11731 ft | 359 kts | 353° |
| 2026-05-05 10:02 | 36.16824 | 120.26870 | 11207 ft | 356 kts | 353° |
| 2026-05-05 10:02 | 36.19279 | 120.26578 | 10792 ft | 350 kts | 353° |
| 2026-05-05 10:02 | 36.21654 | 120.26296 | 10645 ft | 337 kts | 353° |
| 2026-05-05 10:03 | 36.23943 | 120.26022 | 10475 ft | 325 kts | 352° |
| 2026-05-05 10:03 | 36.26158 | 120.25756 | 10340 ft | 315 kts | 352° |
| 2026-05-05 10:03 | 36.28307 | 120.25499 | 10205 ft | 305 kts | 351° |
| 2026-05-05 10:03 | 36.30325 | 120.25039 | 10077 ft | 293 kts | 341° |
| 2026-05-05 10:04 | 36.32244 | 120.24305 | 9899 ft | 286 kts | 339° |
| 2026-05-05 10:04 | 36.34131 | 120.23520 | 9597 ft | 284 kts | 338° |
| 2026-05-05 10:04 | 36.36001 | 120.22740 | 9280 ft | 282 kts | 338° |
| 2026-05-05 10:04 | 36.37857 | 120.21979 | 8976 ft | 280 kts | 339° |
| 2026-05-05 10:05 | 36.39709 | 120.21232 | 8677 ft | 279 kts | 340° |
| 2026-05-05 10:05 | 36.41549 | 120.20496 | 8370 ft | 277 kts | 339° |
| 2026-05-05 10:05 | 36.43389 | 120.19767 | 8079 ft | 276 kts | 340° |
| 2026-05-05 10:05 | 36.45229 | 120.19041 | 7716 ft | 278 kts | 339° |
| 2026-05-05 10:06 | 36.47053 | 120.18322 | 7418 ft | 277 kts | 339° |
| 2026-05-05 10:06 | 36.48894 | 120.17599 | 7128 ft | 276 kts | 339° |
| 2026-05-05 10:06 | 36.50721 | 120.16882 | 6832 ft | 275 kts | 339° |
| 2026-05-05 10:06 | 36.52545 | 120.16165 | 6551 ft | 274 kts | 339° |
| 2026-05-05 10:07 | 36.54363 | 120.15452 | 6313 ft | 271 kts | 339° |
| 2026-05-05 10:07 | 36.56133 | 120.14758 | 6204 ft | 263 kts | 339° |
| 2026-05-05 10:07 | 36.57833 | 120.14092 | 6096 ft | 255 kts | 339° |
| 2026-05-05 10:07 | 36.59502 | 120.13437 | 5980 ft | 247 kts | 338° |
| 2026-05-05 10:08 | 36.60940 | 120.12428 | 5872 ft | 230 kts | 308° |
| 2026-05-05 10:08 | 36.61678 | 120.10774 | 5739 ft | 213 kts | 282° |
| 2026-05-05 10:08 | 36.61823 | 120.08991 | 5477 ft | 204 kts | 263° |
| 2026-05-05 10:08 | 36.61497 | 120.07315 | 5265 ft | 195 kts | 251° |
| 2026-05-05 10:09 | 36.61093 | 120.05752 | 5082 ft | 187 kts | 251° |
| 2026-05-05 10:09 | 36.60701 | 120.04234 | 4881 ft | 181 kts | 250° |
| 2026-05-05 10:09 | 36.60322 | 120.02766 | 4687 ft | 175 kts | 251° |
| 2026-05-05 10:09 | 36.59951 | 120.01330 | 4491 ft | 173 kts | 251° |
| 2026-05-05 10:10 | 36.59481 | 120.00018 | 4278 ft | 166 kts | 229° |
| 2026-05-05 10:10 | 36.58541 | 119.99260 | 4125 ft | 161 kts | 201° |
| 2026-05-05 10:10 | 36.57428 | 119.99215 | 3969 ft | 162 kts | 170° |
| 2026-05-05 10:10 | 36.56336 | 119.99636 | 3847 ft | 170 kts | 171° |
| 2026-05-05 10:11 | 36.55202 | 120.00055 | 3658 ft | 168 kts | 170° |
| 2026-05-05 10:11 | 36.54115 | 120.00473 | 3449 ft | 159 kts | 170° |
| 2026-05-05 10:11 | 36.53103 | 120.00870 | 3295 ft | 146 kts | 171° |
| 2026-05-05 10:11 | 36.52138 | 120.01247 | 3078 ft | 144 kts | 171° |
| 2026-05-05 10:12 | 36.51197 | 120.01617 | 2881 ft | 138 kts | 171° |
| 2026-05-05 10:12 | 36.50287 | 120.01974 | 2705 ft | 136 kts | 171° |
| 2026-05-05 10:12 | 36.49402 | 120.02322 | 2528 ft | 134 kts | 171° |
| 2026-05-05 10:12 | 36.48513 | 120.02671 | 2353 ft | 134 kts | 170° |
| 2026-05-05 10:13 | 36.47622 | 120.03021 | 2185 ft | 134 kts | 171° |
| 2026-05-05 10:13 | 36.46734 | 120.03371 | 2007 ft | 133 kts | 171° |
| 2026-05-05 10:13 | 36.45859 | 120.03716 | 1833 ft | 131 kts | 169° |
| 2026-05-05 10:13 | 36.44989 | 120.04058 | 1658 ft | 132 kts | 169° |
| 2026-05-05 10:14 | 36.44112 | 120.04403 | 1482 ft | 132 kts | 169° |
| 2026-05-05 10:14 | 36.43248 | 120.04742 | 1308 ft | 128 kts | 168° |
| 2026-05-05 10:14 | 36.42408 | 120.05073 | 1138 ft | 125 kts | 166° |
| 2026-05-05 10:14 | 36.41583 | 120.05400 | 984 ft | 126 kts | 167° |
| 2026-05-05 10:15 | 36.40729 | 120.05733 | 825 ft | 131 kts | 165° |
| 2026-05-05 10:15 | 36.39868 | 120.06074 | 653 ft | 126 kts | 164° |
| 2026-05-05 10:15 | 36.39038 | 120.06401 | 489 ft | 124 kts | 163° |
| 2026-05-05 10:15 | 36.38190 | 120.06734 | 335 ft | 132 kts | 164° |
| 2026-05-05 10:16 | 36.37305 | 120.07083 | 147 ft | 133 kts | 161° |
| 2026-05-05 10:16 | 36.36446 | 120.07428 | 37 ft | 115 kts | 162° |
| 2026-05-05 10:16 | 36.35889 | 120.07644 | 34 ft | 53 kts | 162° |
| 2026-05-05 10:16 | 36.35687 | 120.07729 | 34 ft | 23 kts | 154° |
| 2026-05-05 10:17 | 36.35559 | 120.07839 | 34 ft | 22 kts | 137° |
| 2026-05-05 10:17 | 36.35503 | 120.07980 | 32 ft | 17 kts | 58° |
| 2026-05-05 10:17 | 36.35596 | 120.07979 | 32 ft | 14 kts | 342° |
| 2026-05-05 10:17 | 36.35687 | 120.07942 | 33 ft | 13 kts | 342° |
| 2026-05-05 10:18 | 36.35775 | 120.07908 | 35 ft | 13 kts | 343° |
| 2026-05-05 10:18 | 36.35860 | 120.07875 | 35 ft | 13 kts | 342° |
| 2026-05-05 10:18 | 36.35942 | 120.07842 | 34 ft | 12 kts | 342° |
| 2026-05-05 10:18 | 36.36023 | 120.07810 | 33 ft | 12 kts | 342° |
| 2026-05-05 10:19 | 36.36101 | 120.07780 | 33 ft | 12 kts | 343° |
| 2026-05-05 10:19 | 36.36178 | 120.07750 | 35 ft | 11 kts | 342° |
| 2026-05-05 10:19 | 36.36252 | 120.07721 | 35 ft | 11 kts | 342° |
| 2026-05-05 10:19 | 36.36327 | 120.07691 | 35 ft | 12 kts | 342° |
| 2026-05-05 10:20 | 36.36401 | 120.07745 | 35 ft | 17 kts | 72° |
| 2026-05-05 10:20 | 36.36441 | 120.07908 | 34 ft | 21 kts | 73° |
| 2026-05-05 10:20 | 36.36483 | 120.08079 | 35 ft | 21 kts | 73° |
| 2026-05-05 10:20 | 36.36532 | 120.08241 | 33 ft | 20 kts | 65° |
| 2026-05-05 10:21 | 36.36593 | 120.08391 | 34 ft | 19 kts | 76° |
| 2026-05-05 10:21 | 36.36613 | 120.08498 | 34 ft | 5 kts | 77° |
| 2026-05-05 10:21 | 36.36614 | 120.08504 | 34 ft | 0 kts | 77° |